IT-0078 weather

Campo di Volo Prosecco
Trieste, Friuli-Venezia Giulia, Italy

Public forecast

Using degrees Celsius for public forecast. Weather courtesy of forecast.io.

METAR (pilot weather report)

Closest report is Trieste–Friuli Venezia Giulia Airport, 14.2 nm (26.2 km) WNW. Retrieved 2019/07/19 13:20 UTC (21 minutes ago):

LIPQ 191320Z 26009KT 230V290 CAVOK 31/13 Q1015

TAF (pilot weather forecast)

Closest forecast is Trieste–Friuli Venezia Giulia Airport, 14.2 nm (26.2 km) WNW. Retrieved 2019/07/19 12:21 UTC (1 hour ago):

TAF LIPQ 191100Z 1912/2012 20010KT 9999 FEW040 BECMG 1917/1919 VRB05KT BECMG 2010/2012 20010KT